CheckWX is a tool to help pilots better visualize weather data.  It is not intended as a substitute for an official pre-flight weather briefing.

10:41:26 UTC

CYOD TAF
CFB Cold Lake
Cold Lake, Alberta, Canada
TAF CYOD 111130Z 1112/1212 VRB03KT P6SM FEW080 BECMG 1117/1119 20012KT FM111900 20012KT P6SM SCT070 FM120400 18008KT P6SM BKN260 RMK NXT FCST BY 111800Z

Jul-11@
12:00 UTC

Jul-11 @ 12:00 UTC

Jul-11@
17:00 UTC

Jul-11 @ 17:00 UTC

TAF CYOD 111130Z 1112/1212 VRB03KT P6SM FEW080

Expired

Wind
  • Variable at 3 KTS
Cloud Levels
  • Few at 8,000' AGL

Jul-11@
17:00 UTC

Jul-11 @ 17:00 UTC

Jul-11@
19:00 UTC

Jul-11 @ 19:00 UTC

BECMG 1117/1119 20012KT

Expired

Wind
  • 200° at 12 KTS
Cloud Levels
  • Few at 8,000' AGL

Jul-11@
19:00 UTC

Jul-11 @ 19:00 UTC

Jul-12@
04:00 UTC

Jul-12 @ 04:00 UTC

FM111900 20012KT P6SM SCT070

Expired

Wind
  • 200° at 12 KTS
Cloud Levels
  • Scattered at 7,000' AGL

Jul-12@
04:00 UTC

Jul-12 @ 04:00 UTC

Jul-12@
12:00 UTC

Jul-12 @ 12:00 UTC

FM120400 18008KT P6SM BKN260 RMK NXT FCST BY 111800Z

From

From Standard forecast or significant change

Wind
  • 180° at 8 KTS
Cloud Levels
  • Broken at 26,000' AGL